Time;durP1;ratioP1;P1;durP2;ratioP2;P2;SDS_P1;SDS_P2;PMS_P1;PMS_P2;Temp;Humidity;BMP_temperature;BMP_pressure;BME280_temperature;BME280_humidity;BME280_pressure;Samples;Min_cycle;Max_cycle;Signal;HPM_P1;HPM_P2
2023/06/28 00:02:26;;;;;;;;;;;;;;;;;;4993033;28;19925;-74
2023/06/28 00:05:12;;;;;;;;;;;;;;;;;;4994825;28;19925;-76
2023/06/28 00:07:59;;;;;;;;;;;;;;;;;;5002890;28;19918;-74
2023/06/28 00:10:45;;;;;;;;;;;;;;;;;;5002923;28;20419;-74
2023/06/28 00:13:32;;;;;;;;;;;;;;;;;;4987592;28;19929;-74
2023/06/28 00:16:18;;;;;;;;;;;;;;;;;;5005868;28;19932;-74
2023/06/28 00:19:06;;;;;;;;;;;;;;;;;;5003766;28;19917;-74
2023/06/28 00:21:53;;;;;;;;;;;;;;;;;;5004113;28;19968;-74
2023/06/28 00:24:39;;;;;;;;;;;;;;;;;;5007475;28;19940;-73
2023/06/28 00:27:26;;;;;;;;;;;;;;;;;;5005999;28;20301;-73
2023/06/28 00:30:12;;;;;;;;;;;;;;;;;;4997871;28;19925;-74
2023/06/28 00:32:59;;;;;;;;;;;;;;;;;;4993472;28;19925;-74
2023/06/28 00:35:45;;;;;;;;;;;;;;;;;;4996587;28;20274;-74
2023/06/28 00:38:31;;;;;;;;;;;;;;;;;;4998963;28;19922;-73
2023/06/28 00:41:18;;;;;;;;;;;;;;;;;;5013765;28;19917;-73
2023/06/28 00:44:06;;;;;;;;;;;;;;;;;;5004470;28;19918;-74
2023/06/28 00:46:52;;;;;;;;;;;;;;;;;;5004017;28;19924;-74
2023/06/28 00:49:39;;;;;;;;;;;;;;;;;;5006221;28;20285;-73
2023/06/28 00:52:25;;;;;;;;;;;;;;;;;;4996796;28;20524;-73
2023/06/28 00:55:12;;;;;;;;;;;;;;;;;;4996489;28;19929;-73
2023/06/28 00:57:58;;;;;;;;;;;;;;;;;;4998444;28;19921;-73
2023/06/28 01:00:45;;;;;;;;;;;;;;;;;;5006176;28;20373;-73
2023/06/28 01:03:31;;;;;;;;;;;;;;;;;;5003689;28;19933;-73
2023/06/28 01:06:17;;;;;;;;;;;;;;;;;;5002705;28;19944;-74
2023/06/28 01:09:04;;;;;;;;;;;;;;;;;;5003797;28;19925;-73
2023/06/28 01:11:51;;;;;;;;;;;;;;;;;;5001551;28;19921;-73
2023/06/28 01:14:37;;;;;;;;;;;;;;;;;;5003402;28;19913;-73
2023/06/28 01:17:23;;;;;;;;;;;;;;;;;;5004372;28;20315;-73
2023/06/28 01:20:10;;;;;;;;;;;;;;;;;;5005429;28;19920;-73
2023/06/28 01:22:56;;;;;;;;;;;;;;;;;;5000162;28;19922;-74
2023/06/28 01:25:43;;;;;;;;;;;;;;;;;;4993991;28;20436;-73
2023/06/28 01:28:30;;;;;;;;;;;;;;;;;;4992126;28;19925;-73
2023/06/28 01:31:16;;;;;;;;;;;;;;;;;;4995110;28;20281;-74
2023/06/28 01:34:03;;;;;;;;;;;;;;;;;;4993206;28;19921;-74
2023/06/28 01:36:49;;;;;;;;;;;;;;;;;;4994084;28;20028;-73
2023/06/28 01:39:36;;;;;;;;;;;;;;;;;;4995664;28;19913;-72
2023/06/28 01:42:22;;;;;;;;;;;;;;;;;;4997897;28;19929;-73
2023/06/28 01:45:09;;;;;;;;;;;;;;;;;;5001660;28;20387;-74
2023/06/28 01:47:55;;;;;;;;;;;;;;;;;;4996485;28;19914;-74
2023/06/28 01:50:42;;;;;;;;;;;;;;;;;;5000920;28;19922;-74
2023/06/28 01:53:28;;;;;;;;;;;;;;;;;;4989640;28;21087;-74
2023/06/28 01:56:15;;;;;;;;;;;;;;;;;;5004618;28;19941;-75
2023/06/28 01:59:01;;;;;;;;;;;;;;;;;;5001799;28;20290;-74
2023/06/28 02:01:47;;;;;;;;;;;;;;;;;;5003763;28;19931;-74
2023/06/28 02:04:34;;;;;;;;;;;;;;;;;;5000723;28;19929;-74
2023/06/28 02:07:20;;;;;;;;;;;;;;;;;;5001945;28;19913;-74
2023/06/28 02:10:07;;;;;;;;;;;;;;;;;;5001991;28;19917;-74
2023/06/28 02:12:53;;;;;;;;;;;;;;;;;;5000735;28;19948;-74
2023/06/28 02:15:40;;;;;;;;;;;;;;;;;;4999407;28;19924;-74
2023/06/28 02:18:28;;;;;;;;;;;;;;;;;;5001666;28;20320;-74
2023/06/28 02:21:14;;;;;;;;;;;;;;;;;;4998654;28;19922;-74
2023/06/28 02:24:01;;;;;;;;;;;;;;;;;;4996285;28;19931;-74
2023/06/28 02:26:47;;;;;;;;;;;;;;;;;;5002666;28;20340;-73
2023/06/28 02:29:34;;;;;;;;;;;;;;;;;;4998418;28;19928;-73
2023/06/28 02:32:20;;;;;;;;;;;;;;;;;;4994843;28;19969;-73
2023/06/28 02:35:07;;;;;;;;;;;;;;;;;;4990225;28;19917;-74
2023/06/28 02:37:53;;;;;;;;;;;;;;;;;;5002916;28;19927;-75
2023/06/28 02:40:40;;;;;;;;;;;;;;;;;;5002446;28;19936;-74
2023/06/28 02:43:26;;;;;;;;;;;;;;;;;;4995469;28;20400;-74
2023/06/28 02:46:12;;;;;;;;;;;;;;;;;;5002912;28;19922;-74
2023/06/28 02:48:59;;;;;;;;;;;;;;;;;;4989188;28;19917;-75
2023/06/28 02:51:45;;;;;;;;;;;;;;;;;;5002700;28;19932;-75
2023/06/28 02:54:32;;;;;;;;;;;;;;;;;;5001845;28;19925;-74
2023/06/28 02:57:18;;;;;;;;;;;;;;;;;;5002263;28;19926;-75
2023/06/28 03:00:05;;;;;;;;;;;;;;;;;;4993888;28;19913;-73
2023/06/28 03:02:52;;;;;;;;;;;;;;;;;;4998759;28;19924;-76
2023/06/28 03:05:39;;;;;;;;;;;;;;;;;;4997742;28;19960;-74
2023/06/28 03:08:25;;;;;;;;;;;;;;;;;;5001808;28;19947;-74
2023/06/28 03:11:12;;;;;;;;;;;;;;;;;;4997782;28;19922;-74
2023/06/28 03:14:01;;;;;;;;;;;;;;;;;;4996773;28;19922;-75
2023/06/28 03:16:47;;;;;;;;;;;;;;;;;;5000291;28;19917;-74
2023/06/28 03:19:34;;;;;;;;;;;;;;;;;;4992989;28;19929;-73
2023/06/28 03:22:20;;;;;;;;;;;;;;;;;;4998170;28;20369;-74
2023/06/28 03:25:07;;;;;;;;;;;;;;;;;;4996962;28;19925;-73
2023/06/28 03:27:53;;;;;;;;;;;;;;;;;;5001352;28;19929;-74
2023/06/28 03:30:40;;;;;;;;;;;;;;;;;;5000163;28;19920;-73
2023/06/28 03:33:26;;;;;;;;;;;;;;;;;;4993158;28;20404;-74
2023/06/28 03:36:13;;;;;;;;;;;;;;;;;;4998642;28;19922;-73
2023/06/28 03:38:59;;;;;;;;;;;;;;;;;;5000329;28;19917;-74
2023/06/28 03:41:46;;;;;;;;;;;;;;;;;;5001067;28;19921;-73
2023/06/28 03:44:32;;;;;;;;;;;;;;;;;;5002711;28;19929;-74
2023/06/28 03:47:19;;;;;;;;;;;;;;;;;;5000199;28;19953;-74
2023/06/28 03:50:05;;;;;;;;;;;;;;;;;;5003077;28;19918;-74
2023/06/28 03:52:52;;;;;;;;;;;;;;;;;;5004176;28;19941;-75
2023/06/28 03:55:38;;;;;;;;;;;;;;;;;;4992002;28;19918;-73
2023/06/28 03:58:25;;;;;;;;;;;;;;;;;;5002309;28;19921;-73
2023/06/28 04:01:11;;;;;;;;;;;;;;;;;;5002557;28;19932;-74
2023/06/28 04:03:58;;;;;;;;;;;;;;;;;;4997690;28;20363;-73
2023/06/28 04:06:45;;;;;;;;;;;;;;;;;;4996970;28;19922;-73
2023/06/28 04:09:31;;;;;;;;;;;;;;;;;;4992559;28;20669;-73
2023/06/28 04:12:18;;;;;;;;;;;;;;;;;;5003659;28;19921;-73
2023/06/28 04:15:07;;;;;;;;;;;;;;;;;;4998133;28;20374;-74
2023/06/28 04:17:53;;;;;;;;;;;;;;;;;;5001243;28;20030;-75
2023/06/28 04:20:40;;;;;;;;;;;;;;;;;;5006717;28;19940;-74
2023/06/28 04:23:26;;;;;;;;;;;;;;;;;;4984857;28;19922;-74
2023/06/28 04:26:13;;;;;;;;;;;;;;;;;;5004776;28;19949;-74
2023/06/28 04:28:59;;;;;;;;;;;;;;;;;;5003878;28;19937;-74
2023/06/28 04:31:46;;;;;;;;;;;;;;;;;;5000248;28;20028;-73
2023/06/28 04:34:32;;;;;;;;;;;;;;;;;;4999571;28;20297;-72
2023/06/28 04:37:19;;;;;;;;;;;;;;;;;;4993798;28;19921;-73
2023/06/28 04:40:05;;;;;;;;;;;;;;;;;;5000892;28;19928;-73
2023/06/28 04:42:52;;;;;;;;;;;;;;;;;;4994577;28;20412;-74
2023/06/28 04:45:38;;;;;;;;;;;;;;;;;;4994848;28;19926;-72
2023/06/28 04:48:25;;;;;;;;;;;;;;;;;;5004354;28;19920;-72
2023/06/28 04:51:12;;;;;;;;;;;;;;;;;;5000384;28;20440;-72
2023/06/28 04:53:59;;;;;;;;;;;;;;;;;;4997944;28;19928;-73
2023/06/28 04:56:46;;;;;;;;;;;;;;;;;;5007748;28;20839;-72
2023/06/28 04:59:33;;;;;;;;;;;;;;;;;;4999336;28;19929;-72
2023/06/28 05:02:24;;;;;;;;;;;;;;;;;;4998153;28;19913;-72
2023/06/28 05:05:11;;;;;;;;;;;;;;;;;;4995639;28;19933;-72
2023/06/28 05:07:59;;;;;;;;;;;;;;;;;;5003600;28;19914;-72
2023/06/28 05:10:45;;;;;;;;;;;;;;;;;;5004803;28;19917;-72
2023/06/28 05:13:32;;;;;;;;;;;;;;;;;;4999681;28;19927;-72
2023/06/28 05:16:18;;;;;;;;;;;;;;;;;;4997247;28;19917;-72
2023/06/28 05:19:05;;;;;;;;;;;;;;;;;;5003931;28;19917;-72
2023/06/28 05:21:51;;;;;;;;;;;;;;;;;;5004209;28;19921;-72
2023/06/28 05:24:38;;;;;;;;;;;;;;;;;;5004295;28;19952;-72
2023/06/28 05:27:24;;;;;;;;;;;;;;;;;;5003115;28;19936;-73
2023/06/28 05:30:11;;;;;;;;;;;;;;;;;;5004093;28;19918;-72
2023/06/28 05:32:58;;;;;;;;;;;;;;;;;;5005434;28;19924;-73
2023/06/28 05:35:45;;;;;;;;;;;;;;;;;;5004151;28;19913;-72
2023/06/28 05:38:31;;;;;;;;;;;;;;;;;;5002313;28;20308;-72
2023/06/28 05:41:18;;;;;;;;;;;;;;;;;;5001970;28;19925;-73
2023/06/28 05:44:04;;;;;;;;;;;;;;;;;;4998110;28;19918;-72
2023/06/28 05:46:52;;;;;;;;;;;;;;;;;;5004999;28;20364;-72
2023/06/28 05:49:41;;;;;;;;;;;;;;;;;;4999229;28;19929;-72
2023/06/28 05:52:27;;;;;;;;;;;;;;;;;;5002175;28;20301;-72
2023/06/28 05:55:14;;;;;;;;;;;;;;;;;;5002953;28;19917;-75
2023/06/28 05:58:00;;;;;;;;;;;;;;;;;;5001970;28;19924;-73
2023/06/28 06:00:46;;;;;;;;;;;;;;;;;;5004607;28;19918;-72
2023/06/28 06:03:33;;;;;;;;;;;;;;;;;;4996100;28;19918;-72
2023/06/28 06:06:19;;;;;;;;;;;;;;;;;;4992750;28;20359;-72
2023/06/28 06:09:06;;;;;;;;;;;;;;;;;;4998420;28;19918;-72
2023/06/28 06:11:52;;;;;;;;;;;;;;;;;;5003589;28;19932;-73
2023/06/28 06:14:39;;;;;;;;;;;;;;;;;;4991074;28;19922;-72
2023/06/28 06:17:25;;;;;;;;;;;;;;;;;;4993803;28;20432;-75
2023/06/28 06:20:15;;;;;;;;;;;;;;;;;;5000994;28;19925;-74
2023/06/28 06:23:01;;;;;;;;;;;;;;;;;;4997522;28;19922;-74
2023/06/28 06:25:48;;;;;;;;;;;;;;;;;;4998842;28;19996;-75
2023/06/28 06:28:34;;;;;;;;;;;;;;;;;;4982846;28;19930;-78
2023/06/28 06:31:21;;;;;;;;;;;;;;;;;;4981549;28;19913;-72
2023/06/28 06:34:07;;;;;;;;;;;;;;;;;;4973384;28;20656;-73
2023/06/28 06:36:56;;;;;;;;;;;;;;;;;;4976795;28;19918;-74
2023/06/28 06:39:43;;;;;;;;;;;;;;;;;;4979598;28;19924;-73
2023/06/28 06:42:29;;;;;;;;;;;;;;;;;;4980358;28;19921;-75
2023/06/28 06:45:19;;;;;;;;;;;;;;;;;;4979559;28;19932;-73
2023/06/28 06:48:06;;;;;;;;;;;;;;;;;;4980689;28;19933;-72
2023/06/28 06:50:52;;;;;;;;;;;;;;;;;;4971722;28;19922;-78
2023/06/28 06:53:39;;;;;;;;;;;;;;;;;;4978547;28;19921;-73
2023/06/28 06:56:25;;;;;;;;;;;;;;;;;;4975260;28;19917;-74
2023/06/28 06:59:11;;;;;;;;;;;;;;;;;;4976613;28;19925;-74
2023/06/28 07:01:58;;;;;;;;;;;;;;;;;;4970080;28;19922;-74
2023/06/28 07:04:45;;;;;;;;;;;;;;;;;;4983520;28;19941;-73
2023/06/28 07:07:31;;;;;;;;;;;;;;;;;;4976445;28;19922;-74
2023/06/28 07:10:18;;;;;;;;;;;;;;;;;;4981107;28;19918;-74
2023/06/28 07:13:04;;;;;;;;;;;;;;;;;;4975669;28;19922;-73
2023/06/28 07:15:51;;;;;;;;;;;;;;;;;;4976495;28;20382;-74
2023/06/28 07:18:37;;;;;;;;;;;;;;;;;;4974015;28;19925;-74
2023/06/28 07:21:24;;;;;;;;;;;;;;;;;;4974841;28;20448;-74
2023/06/28 07:24:10;;;;;;;;;;;;;;;;;;4977440;28;19918;-74
2023/06/28 07:26:57;;;;;;;;;;;;;;;;;;4982506;28;19927;-73
2023/06/28 07:29:43;;;;;;;;;;;;;;;;;;4970512;28;19941;-72
2023/06/28 07:32:30;;;;;;;;;;;;;;;;;;4978579;28;19933;-73
2023/06/28 07:35:16;;;;;;;;;;;;;;;;;;4981773;28;19928;-73
2023/06/28 07:38:03;;;;;;;;;;;;;;;;;;4973513;28;19947;-74
2023/06/28 07:40:49;;;;;;;;;;;;;;;;;;4987840;28;19917;-73
2023/06/28 07:43:36;;;;;;;;;;;;;;;;;;4977130;28;20321;-73
2023/06/28 07:46:22;;;;;;;;;;;;;;;;;;4976907;28;19930;-72
2023/06/28 07:49:09;;;;;;;;;;;;;;;;;;4971067;28;19924;-73
2023/06/28 07:51:55;;;;;;;;;;;;;;;;;;4981616;28;19922;-74
2023/06/28 07:54:42;;;;;;;;;;;;;;;;;;4972902;28;19914;-73
2023/06/28 07:57:28;;;;;;;;;;;;;;;;;;4980438;28;19928;-73
2023/06/28 08:00:15;;;;;;;;;;;;;;;;;;4966285;28;20167;-73
2023/06/28 08:03:01;;;;;;;;;;;;;;;;;;4988934;28;20681;-75
2023/06/28 08:05:47;;;;;;;;;;;;;;;;;;4978752;28;19926;-73
2023/06/28 08:08:34;;;;;;;;;;;;;;;;;;4973666;28;19922;-73
2023/06/28 08:11:20;;;;;;;;;;;;;;;;;;4976341;28;20432;-73
2023/06/28 08:14:07;;;;;;;;;;;;;;;;;;4974481;28;19919;-74
2023/06/28 08:16:53;;;;;;;;;;;;;;;;;;4968659;28;20350;-74
2023/06/28 08:19:40;;;;;;;;;;;;;;;;;;4976500;28;19928;-73
2023/06/28 08:22:26;;;;;;;;;;;;;;;;;;4979503;28;20325;-73
2023/06/28 08:25:13;;;;;;;;;;;;;;;;;;4980316;28;19929;-74
2023/06/28 08:27:59;;;;;;;;;;;;;;;;;;4997601;28;19936;-74
2023/06/28 08:30:46;;;;;;;;;;;;;;;;;;4999271;28;19917;-74
2023/06/28 08:33:32;;;;;;;;;;;;;;;;;;4993977;28;19929;-73
2023/06/28 08:36:19;;;;;;;;;;;;;;;;;;5002956;28;19925;-73
2023/06/28 08:39:05;;;;;;;;;;;;;;;;;;5003750;28;19922;-72
2023/06/28 08:41:52;;;;;;;;;;;;;;;;;;5004690;28;19925;-73
2023/06/28 08:44:38;;;;;;;;;;;;;;;;;;4979791;28;19930;-73
2023/06/28 08:47:25;;;;;;;;;;;;;;;;;;4999328;28;19918;-74
2023/06/28 08:50:12;;;;;;;;;;;;;;;;;;5001948;28;19917;-73
2023/06/28 08:52:58;;;;;;;;;;;;;;;;;;4997087;28;20733;-75
2023/06/28 08:55:45;;;;;;;;;;;;;;;;;;4998745;28;19955;-73
2023/06/28 08:58:31;;;;;;;;;;;;;;;;;;4992319;28;19929;-73
2023/06/28 09:01:17;;;;;;;;;;;;;;;;;;5005874;28;20012;-73
2023/06/28 09:04:04;;;;;;;;;;;;;;;;;;4995472;28;19921;-73
2023/06/28 09:06:51;;;;;;;;;;;;;;;;;;5001692;28;19952;-74
2023/06/28 09:09:37;;;;;;;;;;;;;;;;;;5003091;28;19917;-74
2023/06/28 09:12:24;;;;;;;;;;;;;;;;;;4996603;28;19918;-74
2023/06/28 09:15:10;;;;;;;;;;;;;;;;;;4997500;28;19955;-73
2023/06/28 09:17:57;;;;;;;;;;;;;;;;;;5002021;28;19929;-73
2023/06/28 09:20:43;;;;;;;;;;;;;;;;;;5005391;28;19932;-73
2023/06/28 09:23:30;;;;;;;;;;;;;;;;;;5000909;28;20356;-74
2023/06/28 09:26:16;;;;;;;;;;;;;;;;;;5001272;28;20389;-74
2023/06/28 09:29:02;;;;;;;;;;;;;;;;;;4982293;28;19932;-73
2023/06/28 09:31:49;;;;;;;;;;;;;;;;;;4980407;28;19922;-73
2023/06/28 09:34:36;;;;;;;;;;;;;;;;;;4973440;28;19925;-72
2023/06/28 09:37:22;;;;;;;;;;;;;;;;;;4974903;28;19922;-72
2023/06/28 09:40:09;;;;;;;;;;;;;;;;;;4981667;28;20449;-73
2023/06/28 09:42:55;;;;;;;;;;;;;;;;;;4978469;28;19929;-74
2023/06/28 09:45:43;;;;;;;;;;;;;;;;;;4974249;28;19933;-74
2023/06/28 09:48:29;;;;;;;;;;;;;;;;;;4976463;28;19917;-74
2023/06/28 09:51:16;;;;;;;;;;;;;;;;;;4984609;28;19921;-74
2023/06/28 09:54:03;;;;;;;;;;;;;;;;;;4969014;28;20011;-74
2023/06/28 09:56:50;;;;;;;;;;;;;;;;;;4976959;28;19940;-74
2023/06/28 09:59:36;;;;;;;;;;;;;;;;;;4973445;28;19928;-74
2023/06/28 10:02:23;;;;;;;;;;;;;;;;;;4974816;28;19928;-73
2023/06/28 10:05:09;;;;;;;;;;;;;;;;;;4983238;28;19933;-73
2023/06/28 10:07:56;;;;;;;;;;;;;;;;;;4981656;28;20729;-74
2023/06/28 10:10:42;;;;;;;;;;;;;;;;;;4977090;28;19914;-73
2023/06/28 10:13:29;;;;;;;;;;;;;;;;;;4973698;28;19918;-73
2023/06/28 10:16:15;;;;;;;;;;;;;;;;;;4977526;28;19926;-73
2023/06/28 10:19:02;;;;;;;;;;;;;;;;;;4977873;28;19924;-74
2023/06/28 10:21:48;;;;;;;;;;;;;;;;;;4982903;28;19921;-73
2023/06/28 10:24:35;;;;;;;;;;;;;;;;;;4967618;28;19918;-73
2023/06/28 10:27:21;;;;;;;;;;;;;;;;;;4979252;28;20396;-73
2023/06/28 10:30:08;;;;;;;;;;;;;;;;;;4973360;28;19921;-74
2023/06/28 10:32:54;;;;;;;;;;;;;;;;;;4975749;28;19960;-73
2023/06/28 10:35:41;;;;;;;;;;;;;;;;;;4982237;28;20491;-73
2023/06/28 10:38:28;;;;;;;;;;;;;;;;;;4972289;28;20389;-74
2023/06/28 10:41:14;;;;;;;;;;;;;;;;;;4973879;28;19917;-74
2023/06/28 10:44:00;;;;;;;;;;;;;;;;;;4972918;28;19929;-74
2023/06/28 10:46:47;;;;;;;;;;;;;;;;;;4975081;28;19922;-74
2023/06/28 10:49:33;;;;;;;;;;;;;;;;;;4974875;28;20017;-73
2023/06/28 10:52:20;;;;;;;;;;;;;;;;;;4976885;28;19918;-74
2023/06/28 10:55:11;;;;;;;;;;;;;;;;;;4973881;28;19918;-74
2023/06/28 10:57:58;;;;;;;;;;;;;;;;;;4979179;28;19926;-74
2023/06/28 11:00:44;;;;;;;;;;;;;;;;;;4977579;28;19929;-73
2023/06/28 11:03:31;;;;;;;;;;;;;;;;;;4972779;28;19922;-74
2023/06/28 11:06:17;;;;;;;;;;;;;;;;;;4982988;28;20388;-73
2023/06/28 11:09:04;;;;;;;;;;;;;;;;;;4976471;28;19921;-73
2023/06/28 11:11:50;;;;;;;;;;;;;;;;;;4978195;28;19913;-73
2023/06/28 11:14:36;;;;;;;;;;;;;;;;;;4980705;28;19922;-73
2023/06/28 11:17:23;;;;;;;;;;;;;;;;;;4982499;28;19927;-73
2023/06/28 11:20:10;;;;;;;;;;;;;;;;;;4973891;28;19918;-73
2023/06/28 11:22:57;;;;;;;;;;;;;;;;;;4968846;28;19918;-74
2023/06/28 11:25:43;;;;;;;;;;;;;;;;;;4976292;28;20309;-74
2023/06/28 11:28:30;;;;;;;;;;;;;;;;;;4976724;28;19961;-74
2023/06/28 11:31:17;;;;;;;;;;;;;;;;;;4976435;28;19928;-73
2023/06/28 11:34:03;;;;;;;;;;;;;;;;;;4975330;28;19924;-72
2023/06/28 11:36:50;;;;;;;;;;;;;;;;;;4977981;28;19922;-73
2023/06/28 11:39:36;;;;;;;;;;;;;;;;;;4981646;28;19918;-73
2023/06/28 11:42:25;;;;;;;;;;;;;;;;;;4980390;28;19922;-74
2023/06/28 11:45:13;;;;;;;;;;;;;;;;;;4973102;28;19926;-74
2023/06/28 11:47:59;;;;;;;;;;;;;;;;;;4983638;28;20389;-74
2023/06/28 11:50:46;;;;;;;;;;;;;;;;;;4981963;28;19921;-74
2023/06/28 11:53:32;;;;;;;;;;;;;;;;;;4979729;28;19929;-73
2023/06/28 11:56:19;;;;;;;;;;;;;;;;;;4978403;28;19937;-74
2023/06/28 11:59:05;;;;;;;;;;;;;;;;;;4975987;28;19929;-74
2023/06/28 12:01:52;;;;;;;;;;;;;;;;;;4985470;28;20382;-74
2023/06/28 12:04:38;;;;;;;;;;;;;;;;;;4983251;28;19924;-72
2023/06/28 12:07:24;;;;;;;;;;;;;;;;;;4984301;28;19914;-74
2023/06/28 12:10:11;;;;;;;;;;;;;;;;;;4981482;28;19921;-74
2023/06/28 12:12:57;;;;;;;;;;;;;;;;;;4983035;28;20252;-74
2023/06/28 12:15:44;;;;;;;;;;;;;;;;;;4984283;28;19929;-74
2023/06/28 12:18:30;;;;;;;;;;;;;;;;;;4979060;28;20568;-74
2023/06/28 12:21:17;;;;;;;;;;;;;;;;;;4978851;28;19918;-74
2023/06/28 12:24:03;;;;;;;;;;;;;;;;;;4979061;28;19945;-74
2023/06/28 12:26:51;;;;;;;;;;;;;;;;;;4985403;28;19940;-74
2023/06/28 12:29:37;;;;;;;;;;;;;;;;;;4995569;28;20383;-74
2023/06/28 12:32:25;;;;;;;;;;;;;;;;;;5002223;28;19945;-74
2023/06/28 12:35:11;;;;;;;;;;;;;;;;;;4997153;28;19917;-74
2023/06/28 12:37:58;;;;;;;;;;;;;;;;;;5000992;28;19963;-74
2023/06/28 12:40:44;;;;;;;;;;;;;;;;;;5004655;28;19922;-73
2023/06/28 12:43:31;;;;;;;;;;;;;;;;;;4999830;28;20381;-72
2023/06/28 12:46:18;;;;;;;;;;;;;;;;;;5002866;28;19930;-73
2023/06/28 12:49:04;;;;;;;;;;;;;;;;;;5003339;28;19929;-74
2023/06/28 12:51:51;;;;;;;;;;;;;;;;;;4996967;28;19929;-74
2023/06/28 12:54:37;;;;;;;;;;;;;;;;;;4999741;28;19945;-73
2023/06/28 12:57:27;;;;;;;;;;;;;;;;;;4996289;28;19922;-74
2023/06/28 13:00:13;;;;;;;;;;;;;;;;;;4996570;28;19928;-74
2023/06/28 13:03:00;;;;;;;;;;;;;;;;;;4999579;28;20445;-74
2023/06/28 13:05:47;;;;;;;;;;;;;;;;;;5004568;28;19929;-73
2023/06/28 13:08:33;;;;;;;;;;;;;;;;;;5000683;28;20702;-73
2023/06/28 13:11:20;;;;;;;;;;;;;;;;;;4996285;28;19914;-73
2023/06/28 13:14:06;;;;;;;;;;;;;;;;;;5005574;28;19917;-73
2023/06/28 13:16:53;;;;;;;;;;;;;;;;;;4997209;28;19918;-76
2023/06/28 13:19:39;;;;;;;;;;;;;;;;;;4995798;28;20459;-73
2023/06/28 13:22:26;;;;;;;;;;;;;;;;;;5001770;28;19918;-73
2023/06/28 13:25:13;;;;;;;;;;;;;;;;;;4995436;28;19926;-73
2023/06/28 13:27:59;;;;;;;;;;;;;;;;;;4995311;28;20801;-73
2023/06/28 13:30:46;;;;;;;;;;;;;;;;;;4998757;28;19925;-73
2023/06/28 13:33:32;;;;;;;;;;;;;;;;;;5000182;28;19917;-73
2023/06/28 13:36:19;;;;;;;;;;;;;;;;;;5001201;28;19918;-73
2023/06/28 13:39:05;;;;;;;;;;;;;;;;;;5002213;28;19925;-74
2023/06/28 13:41:52;;;;;;;;;;;;;;;;;;4998181;28;19917;-74
2023/06/28 13:44:38;;;;;;;;;;;;;;;;;;4999661;28;19917;-74
2023/06/28 13:47:25;;;;;;;;;;;;;;;;;;5003234;28;19921;-74
2023/06/28 13:50:11;;;;;;;;;;;;;;;;;;4999801;28;19929;-73
2023/06/28 13:52:58;;;;;;;;;;;;;;;;;;5001286;28;19948;-74
2023/06/28 13:55:44;;;;;;;;;;;;;;;;;;5006271;28;19921;-73
2023/06/28 13:58:31;;;;;;;;;;;;;;;;;;5000527;28;19928;-73
2023/06/28 14:01:17;;;;;;;;;;;;;;;;;;4998901;28;20004;-74
2023/06/28 14:04:05;;;;;;;;;;;;;;;;;;4998769;28;19947;-74
2023/06/28 14:06:51;;;;;;;;;;;;;;;;;;4999094;28;19925;-74
2023/06/28 14:09:38;;;;;;;;;;;;;;;;;;5005154;28;19928;-74
2023/06/28 14:12:24;;;;;;;;;;;;;;;;;;5002953;28;19936;-74
2023/06/28 14:15:11;;;;;;;;;;;;;;;;;;5001014;28;19944;-74
2023/06/28 14:17:57;;;;;;;;;;;;;;;;;;5003099;28;20338;-74
2023/06/28 14:20:44;;;;;;;;;;;;;;;;;;4994364;28;19921;-74
2023/06/28 14:23:30;;;;;;;;;;;;;;;;;;4997210;28;19960;-73
2023/06/28 14:26:17;;;;;;;;;;;;;;;;;;4994842;28;19964;-74
2023/06/28 14:29:05;;;;;;;;;;;;;;;;;;4997261;28;19937;-73
2023/06/28 14:31:52;;;;;;;;;;;;;;;;;;5009575;28;20119;-74
2023/06/28 14:34:39;;;;;;;;;;;;;;;;;;4995957;28;19971;-72
2023/06/28 14:37:25;;;;;;;;;;;;;;;;;;4994909;28;19924;-74
2023/06/28 14:40:12;;;;;;;;;;;;;;;;;;4994708;28;19925;-74
2023/06/28 14:42:58;;;;;;;;;;;;;;;;;;4999962;28;19917;-75
2023/06/28 14:45:45;;;;;;;;;;;;;;;;;;5002420;28;19932;-73
2023/06/28 14:48:31;;;;;;;;;;;;;;;;;;5001036;28;19918;-74
2023/06/28 14:51:18;;;;;;;;;;;;;;;;;;4996017;28;19914;-73
2023/06/28 14:54:04;;;;;;;;;;;;;;;;;;4987450;28;20404;-74
2023/06/28 14:56:51;;;;;;;;;;;;;;;;;;4998093;28;20369;-74
2023/06/28 14:59:37;;;;;;;;;;;;;;;;;;4999431;28;19926;-74
2023/06/28 15:02:24;;;;;;;;;;;;;;;;;;4999363;28;19922;-74
2023/06/28 15:05:11;;;;;;;;;;;;;;;;;;4996741;28;20433;-73
2023/06/28 15:07:59;;;;;;;;;;;;;;;;;;4990978;28;19925;-74
2023/06/28 15:10:45;;;;;;;;;;;;;;;;;;5002605;28;19917;-74
2023/06/28 15:13:31;;;;;;;;;;;;;;;;;;4999849;28;19921;-74
2023/06/28 15:16:18;;;;;;;;;;;;;;;;;;4993568;28;19925;-73
2023/06/28 15:19:04;;;;;;;;;;;;;;;;;;4997414;28;19921;-73
2023/06/28 15:21:51;;;;;;;;;;;;;;;;;;4988797;28;19940;-74
2023/06/28 15:24:37;;;;;;;;;;;;;;;;;;5000944;28;19913;-74
2023/06/28 15:27:24;;;;;;;;;;;;;;;;;;4999743;28;19930;-72
2023/06/28 15:30:10;;;;;;;;;;;;;;;;;;5001437;28;19917;-73
2023/06/28 15:32:57;;;;;;;;;;;;;;;;;;4996427;28;19922;-73
2023/06/28 15:35:43;;;;;;;;;;;;;;;;;;5003889;28;20385;-74
2023/06/28 15:38:30;;;;;;;;;;;;;;;;;;5006078;28;19918;-73
2023/06/28 15:41:16;;;;;;;;;;;;;;;;;;5002138;28;19924;-73
2023/06/28 15:44:03;;;;;;;;;;;;;;;;;;4998893;28;20364;-74
2023/06/28 15:46:49;;;;;;;;;;;;;;;;;;5001798;28;19935;-73
2023/06/28 15:49:36;;;;;;;;;;;;;;;;;;5002746;28;19994;-73
2023/06/28 15:52:22;;;;;;;;;;;;;;;;;;5002486;28;19928;-74
2023/06/28 15:55:09;;;;;;;;;;;;;;;;;;5001529;28;20039;-74
2023/06/28 15:57:55;;;;;;;;;;;;;;;;;;5000517;28;19937;-74
2023/06/28 16:00:42;;;;;;;;;;;;;;;;;;5000518;28;19922;-74
2023/06/28 16:03:28;;;;;;;;;;;;;;;;;;5001709;28;19921;-73
2023/06/28 16:06:15;;;;;;;;;;;;;;;;;;4991883;28;20403;-74
2023/06/28 16:09:01;;;;;;;;;;;;;;;;;;5001411;28;19922;-74
2023/06/28 16:11:48;;;;;;;;;;;;;;;;;;5001844;28;20300;-73
2023/06/28 16:14:35;;;;;;;;;;;;;;;;;;4999381;28;19921;-73
2023/06/28 16:17:24;;;;;;;;;;;;;;;;;;5005554;28;19921;-74
2023/06/28 16:20:10;;;;;;;;;;;;;;;;;;4991107;28;19914;-73
2023/06/28 16:22:58;;;;;;;;;;;;;;;;;;5005571;28;20387;-74
2023/06/28 16:25:44;;;;;;;;;;;;;;;;;;5003647;28;19934;-73
2023/06/28 16:28:30;;;;;;;;;;;;;;;;;;5003213;28;19930;-74
2023/06/28 16:31:17;;;;;;;;;;;;;;;;;;5002110;28;19913;-74
2023/06/28 16:34:03;;;;;;;;;;;;;;;;;;5003034;28;19914;-74
2023/06/28 16:36:52;;;;;;;;;;;;;;;;;;5003643;28;20240;-73
2023/06/28 16:39:40;;;;;;;;;;;;;;;;;;5002517;28;19920;-74
2023/06/28 16:42:26;;;;;;;;;;;;;;;;;;5005241;28;19921;-74
2023/06/28 16:45:13;;;;;;;;;;;;;;;;;;4994290;28;19918;-74
2023/06/28 16:47:59;;;;;;;;;;;;;;;;;;4983988;28;19941;-75
2023/06/28 16:50:46;;;;;;;;;;;;;;;;;;4994421;28;19933;-73
2023/06/28 16:53:32;;;;;;;;;;;;;;;;;;5003573;28;20289;-73
2023/06/28 16:56:19;;;;;;;;;;;;;;;;;;4996979;28;19922;-73
2023/06/28 16:59:05;;;;;;;;;;;;;;;;;;5005292;28;20391;-74
2023/06/28 17:01:54;;;;;;;;;;;;;;;;;;4999537;28;19921;-73
2023/06/28 17:04:41;;;;;;;;;;;;;;;;;;4990388;28;19918;-74
2023/06/28 17:07:27;;;;;;;;;;;;;;;;;;5003722;28;19925;-73
2023/06/28 17:10:14;;;;;;;;;;;;;;;;;;5002230;28;19917;-74
2023/06/28 17:13:00;;;;;;;;;;;;;;;;;;4994857;28;19921;-75
2023/06/28 17:15:47;;;;;;;;;;;;;;;;;;4992678;28;20266;-74
2023/06/28 17:18:33;;;;;;;;;;;;;;;;;;5003685;28;19925;-74
2023/06/28 17:21:20;;;;;;;;;;;;;;;;;;5003058;28;19918;-75
2023/06/28 17:24:06;;;;;;;;;;;;;;;;;;4994185;28;19925;-74
2023/06/28 17:26:56;;;;;;;;;;;;;;;;;;5000912;28;19925;-74
2023/06/28 17:29:43;;;;;;;;;;;;;;;;;;4998960;28;19937;-74
2023/06/28 17:32:30;;;;;;;;;;;;;;;;;;4998841;28;19935;-74
2023/06/28 17:35:20;;;;;;;;;;;;;;;;;;5010057;28;19918;-74
2023/06/28 17:38:07;;;;;;;;;;;;;;;;;;5000202;28;19939;-74
2023/06/28 17:40:53;;;;;;;;;;;;;;;;;;5005616;28;19940;-74
2023/06/28 17:43:41;;;;;;;;;;;;;;;;;;4995044;28;20385;-73
2023/06/28 17:46:27;;;;;;;;;;;;;;;;;;4980511;28;19925;-73
2023/06/28 17:49:14;;;;;;;;;;;;;;;;;;5002863;28;19928;-72
2023/06/28 17:52:00;;;;;;;;;;;;;;;;;;4997920;28;19924;-74
2023/06/28 17:54:47;;;;;;;;;;;;;;;;;;4995372;28;19921;-74
2023/06/28 17:57:34;;;;;;;;;;;;;;;;;;4993713;28;19941;-74
2023/06/28 18:00:20;;;;;;;;;;;;;;;;;;4996013;28;19918;-73
2023/06/28 18:03:07;;;;;;;;;;;;;;;;;;4991719;28;19944;-74
2023/06/28 18:05:53;;;;;;;;;;;;;;;;;;4989831;28;19947;-73
2023/06/28 18:08:40;;;;;;;;;;;;;;;;;;5000508;28;19921;-73
2023/06/28 18:11:26;;;;;;;;;;;;;;;;;;5003864;28;19926;-74
2023/06/28 18:14:13;;;;;;;;;;;;;;;;;;4995231;28;19940;-74
2023/06/28 18:16:59;;;;;;;;;;;;;;;;;;4993292;28;20380;-74
2023/06/28 18:19:46;;;;;;;;;;;;;;;;;;5003507;28;19921;-74
2023/06/28 18:22:33;;;;;;;;;;;;;;;;;;5000408;28;20277;-74
2023/06/28 18:25:19;;;;;;;;;;;;;;;;;;4988590;28;19921;-74
2023/06/28 18:28:06;;;;;;;;;;;;;;;;;;4984833;28;19940;-74
2023/06/28 18:30:52;;;;;;;;;;;;;;;;;;4970343;28;19925;-74
2023/06/28 18:33:39;;;;;;;;;;;;;;;;;;4973867;28;19945;-74
2023/06/28 18:36:25;;;;;;;;;;;;;;;;;;4988574;28;19921;-74
2023/06/28 18:39:12;;;;;;;;;;;;;;;;;;4980146;28;19928;-74
2023/06/28 18:41:59;;;;;;;;;;;;;;;;;;4979434;28;19968;-74
2023/06/28 18:44:45;;;;;;;;;;;;;;;;;;4987252;28;19922;-74
2023/06/28 18:47:32;;;;;;;;;;;;;;;;;;4967996;28;19930;-74
2023/06/28 18:50:18;;;;;;;;;;;;;;;;;;4981540;28;20289;-74
2023/06/28 18:53:05;;;;;;;;;;;;;;;;;;4979598;28;20393;-74
2023/06/28 18:55:51;;;;;;;;;;;;;;;;;;4974853;28;19925;-74
2023/06/28 18:58:38;;;;;;;;;;;;;;;;;;4975926;28;20447;-74